MWCRMYNN

Guest
Details From MWCR - Owen Roberts Intl
To MYNN - Nassau Intl
Flight Number -
Tags decoded
Created
Modified
Stats Distance 409 nm / 758 km
Max Altitude 0 ft / 0 m
Waypoints 4
Social Downloads 2
Likes 0
Share VATSIM

Download

Looking for another format? Having issues loading an existing format? Contact us
Advertisement - Login to hide

Notes

Requested: MWCR DYNAH M329 ZQA MYNN Unmatched points: M329

Route

MWCR DYNAH ZQA MYNN

ID Type Via Altitude Latitude Longitude Leg Dist Tot Dist Heading (true) Name
O MWCR APT - 0 ft / 0 m 19.29278˚ -81.35776˚ - 0 nm - Owen Roberts Intl
DYNAH FIX - 0 ft / 0 m 23.94950˚ -77.94683˚ 338 nm 338 nm 34° / 35° -
ZQA NDB - 0 ft / 0 m 25.04042˚ -77.47050˚ 70 nm 408 nm 22° / 22° NASSAU NDB
O MYNN APT - 0 ft / 0 m 25.03860˚ -77.46662˚ 0 nm 409 nm 117° / 117° Nassau Intl

Altitude Profile

Advertisement - Login to hide

Weather


0- 5 10 15 20 25 30 35+ Temperature / ° C

Clouds and Precipitation
Forecast for 2017-12-14 18:00 UTC. Updated 20 minutes ago

Ground ~20,000 ft ~40,000 ft Winds

MWCR

Details ICAO MWCR (GCM)
Name Owen Roberts Intl
Region Cayman Islands
Timezone America/Cayman (UTC-5.0)
Stats Elevation 7 ft / 2 m (AMSL)
Location 19.292776° -81.357760°
Runways 1
Magnetic Variation 4.989° W

METAR

MWCR 141300Z 03004KT 9999 FEW016 SCT030 23/18 Q1015

Decode

TAF

TAF MWCR 141100Z 1412/1512 07010KT 9999 FEW018 BECMG 1417/1419 BKN018

Decode

Departure Runways

ID Width Length Bearing (true) Bearing (mag) Surface Threshold Offset Overrun Length
08 148 ft / 45 m 7,016 ft / 2,139 m 75.84° 80.83° Asphalt 0 ft / 0 m 0 ft / 0 m
26 148 ft / 45 m 7,016 ft / 2,139 m 255.85° 260.84° Asphalt 400 ft / 122 m 0 ft / 0 m

MYNN

Details ICAO MYNN (NAS)
Name Nassau Intl
Region Bahamas
Timezone America/Nassau (UTC-5.0)
Stats Elevation 16 ft / 5 m (AMSL)
Location 25.038596° -77.466621°
Runways 2
Magnetic Variation 8.218° W

METAR

MYNN 141300Z 00000KT 9999 FEW025 19/12 A3008

Decode

TAF

Not found

Destination Runways

ID Width Length Bearing (true) Bearing (mag) Surface Threshold Offset Overrun Length
09 151 ft / 46 m 8,311 ft / 2,533 m 89.62° 97.84° Asphalt 0 ft / 0 m 0 ft / 0 m
14 151 ft / 46 m 11,364 ft / 3,464 m 134.83° 143.05° Asphalt 226 ft / 69 m 0 ft / 0 m
27 151 ft / 46 m 8,311 ft / 2,533 m 269.64° 277.86° Asphalt 0 ft / 0 m 0 ft / 0 m
32 151 ft / 46 m 11,364 ft / 3,464 m 314.84° 323.06° Asphalt 0 ft / 0 m 0 ft / 0 m

Approach Navaids

Runway Type Ident Frequency Range Bearing (true) Bearing (mag) Slope Elevation
14 Localiser IZQA 110.10 MHz 18 nm / 33 km 134.83° 143.05° - 7 ft / 2 m (AMSL)
14 Glidescope IZQA 110.10 MHz 10 nm / 19 km 134.83° 143.05° 3.00° 8 ft / 2 m (AMSL)

Popular Alternatives